Hordafor III — LLVC — position and weather

sailwx.info

Track history (hours):
 
Tides and Currents Weather Stations Pressure Air Temp Water Temp Dewpoint Dewpoint Depression Visibility Wind Speed Wind Dir Waves Ship Positions

Hordafor III

Last reported at 2017-Jul-28 16:30 UTC. Time now 2017-Jul-28 16:41 UTC.
Position N 60°00' E 005°07'.

Length 50 m; draft 6 m.

Type: Cargo ship. MMSI: 258044000.

Date/timePositionNaut miles runAvg speedWind from/ knotsBaromVisibWave heightAir tempDewpointWater temp
2017-Jul-28 16:30N 60°00' E 005°07'2 4.6
2017-Jul-28 16:00N 60°02' E 005°10'510.0
2017-Jul-28 15:30N 60°07' E 005°11'5 9.8
2017-Jul-28 15:01N 60°12' E 005°11'5 9.7
2017-Jul-28 14:31N 60°17' E 005°09'5 9.4
2017-Jul-28 13:59N 60°21' E 005°10'5 9.2
2017-Jul-28 13:30N 60°25' E 005°04'5 9.5
2017-Jul-28 13:00N 60°29' E 004°59'5 9.9
2017-Jul-28 12:30N 60°34' E 004°56'5 9.8
2017-Jul-28 12:00N 60°38' E 004°52'5 9.9
2017-Jul-28 11:29N 60°43' E 004°49'510.0
2017-Jul-28 11:00N 60°48' E 004°45'5 9.5
2017-Jul-28 10:30N 60°52' E 004°47'5 9.8
2017-Jul-28 10:00N 60°57' E 004°45'5 9.8
2017-Jul-28 09:30N 61°02' E 004°45'5 8.9
2017-Jul-28 09:00N 61°07' E 004°44'5 9.8
2017-Jul-28 08:30N 61°12' E 004°43'4 9.1
2017-Jul-28 08:00N 61°16' E 004°45'5 9.1
2017-Jul-28 07:30N 61°20' E 004°48'5 9.5
2017-Jul-28 07:00N 61°25' E 004°51'5 9.5
2017-Jul-28 06:30N 61°28' E 004°58'5 9.5
2017-Jul-28 06:00N 61°33' E 004°60'4 8.7
2017-Jul-28 05:30N 61°37' E 004°59'510.0
2017-Jul-28 05:00N 61°42' E 004°58'5 9.3
2017-Jul-28 04:30N 61°46' E 005°03'5 9.8
2017-Jul-28 04:00N 61°49' E 005°11'4 6.9
2017-Jul-28 03:30N 61°52' E 005°14'4 9.0
2017-Jul-28 03:00N 61°55' E 005°07'5 9.3
2017-Jul-28 02:30N 61°60' E 005°10'510.1
2017-Jul-28 02:00N 62°05' E 005°07'5 9.9
2017-Jul-28 01:30N 62°09' E 005°04'5 9.4
2017-Jul-28 01:00N 62°14' E 005°10'510.4
2017-Jul-28 00:29N 62°16' E 005°19'510.2
2017-Jul-28 00:00N 62°18' E 005°29'4 8.9
2017-Jul-27 23:30N 62°19' E 005°39'4 7.8
2017-Jul-27 23:00N 62°21' E 005°46'5 9.7
2017-Jul-27 22:30N 62°25' E 005°52'5 9.6
2017-Jul-27 22:00N 62°27' E 006°01'5 9.4
2017-Jul-27 21:30N 62°30' E 006°09'5 9.5
2017-Jul-27 20:58N 62°35' E 006°13'4 9.1
2017-Jul-27 20:30N 62°38' E 006°20'5 9.3
2017-Jul-27 20:00N 62°41' E 006°27'5 9.5
2017-Jul-27 19:30N 62°45' E 006°32'5 9.6
2017-Jul-27 19:01N 62°49' E 006°38'5 9.3
2017-Jul-27 18:30N 62°53' E 006°44'5 9.7
2017-Jul-27 18:00N 62°57' E 006°50'5 9.5
2017-Jul-27 17:30N 62°60' E 006°59'5 9.9
2017-Jul-27 17:00N 63°02' E 007°09'510.0
2017-Jul-27 16:30N 63°03' E 007°19'3 6.6
2017-Jul-27 16:00N 63°03' E 007°27'0 0.0
2017-Jul-27 15:30N 63°03' E 007°27'0 0.0
2017-Jul-27 15:00N 63°03' E 007°27'0 0.0
2017-Jul-27 14:00N 63°03' E 007°27'0 0.0
2017-Jul-27 13:30N 63°03' E 007°27'0 0.0
2017-Jul-27 13:00N 63°03' E 007°27'0 0.0
2017-Jul-27 12:30N 63°03' E 007°27'3 5.8
2017-Jul-27 12:00N 63°03' E 007°20'510.4
2017-Jul-27 11:30N 63°02' E 007°09'510.3
2017-Jul-27 11:00N 62°60' E 006°59'5 9.6
2017-Jul-27 10:30N 62°57' E 006°50'510.1
2017-Jul-27 10:00N 62°53' E 006°44'5 9.4
2017-Jul-27 09:30N 62°48' E 006°40'1 1.1
2017-Jul-27 09:00N 62°48' E 006°40'0 0.0
2017-Jul-27 08:30N 62°48' E 006°40'1 2.1
2017-Jul-27 08:00N 62°49' E 006°39'510.2
2017-Jul-27 07:30N 62°45' E 006°32'510.7
2017-Jul-27 07:00N 62°40' E 006°25'510.2
2017-Jul-27 06:30N 62°37' E 006°18'510.3
2017-Jul-27 06:00N 62°33' E 006°10'5 9.5
2017-Jul-27 05:30N 62°29' E 006°05'510.0
2017-Jul-27 05:00N 62°26' E 005°56'5 9.9
2017-Jul-27 04:31N 62°23' E 005°48'5 9.0
2017-Jul-27 04:00N 62°19' E 005°42'5 9.8
2017-Jul-27 03:30N 62°18' E 005°31'510.2
2017-Jul-27 03:00N 62°17' E 005°21'510.1
2017-Jul-27 02:30N 62°14' E 005°12'5 9.5
2017-Jul-27 02:00N 62°11' E 005°05'510.3
2017-Jul-27 01:30N 62°05' E 005°06'510.5
2017-Jul-27 01:00N 62°01' E 005°09'510.2
2017-Jul-27 00:30N 61°56' E 005°07'5 8.9
2017-Jul-26 23:59N 61°52' E 005°14'3 6.7
2017-Jul-26 23:30N 61°49' E 005°11'5 9.8
2017-Jul-26 22:59N 61°46' E 005°03'5 9.3
2017-Jul-26 22:30N 61°42' E 004°58'510.1
2017-Jul-26 22:00N 61°37' E 004°59'4 9.0
2017-Jul-26 21:31N 61°33' E 005°00'510.2
2017-Jul-26 21:00N 61°28' E 004°59'5 9.6
2017-Jul-26 20:30N 61°23' E 005°01'5 9.5
2017-Jul-26 20:00N 61°18' E 005°03'5 9.3
2017-Jul-26 19:30N 61°16' E 004°55'4 8.8
2017-Jul-26 19:00N 61°13' E 005°01'510.0
2017-Jul-26 18:30N 61°13' E 005°11'2 4.4
2017-Jul-26 18:00N 61°12' E 005°16'0 0.0
2017-Jul-26 17:30N 61°12' E 005°16'0 0.0
2017-Jul-26 16:59N 61°12' E 005°16'0 0.0
2017-Jul-26 16:30N 61°12' E 005°16'0 0.1
2017-Jul-26 16:00N 61°12' E 005°16'5 9.7
2017-Jul-26 15:30N 61°13' E 005°06'4 7.8
2017-Jul-26 15:00N 61°09' E 005°01'9 9.1
2017-Jul-26 14:01N 61°01' E 004°52'5 9.5
2017-Jul-26 13:30N 60°58' E 004°46'510.1
2017-Jul-26 13:00N 60°53' E 004°47'5 9.5
2017-Jul-26 12:30N 60°48' E 004°45'510.2
2017-Jul-26 12:00N 60°43' E 004°49'510.4
2017-Jul-26 11:30N 60°38' E 004°53'510.5
2017-Jul-26 11:00N 60°33' E 004°56'510.1
2017-Jul-26 10:30N 60°29' E 004°60'510.0
2017-Jul-26 10:00N 60°25' E 005°05'4 8.8
2017-Jul-26 09:30N 60°24' E 005°14'2 4.8
2017-Jul-26 09:00N 60°24' E 005°19'0 0.0
2017-Jul-26 08:29N 60°24' E 005°19'0 0.0
2017-Jul-26 08:00N 60°24' E 005°19'0 0.0
2017-Jul-26 07:30N 60°24' E 005°19'0 0.0
2017-Jul-26 07:00N 60°24' E 005°19'0 0.0
2017-Jul-26 06:30N 60°24' E 005°19'0 0.0
2017-Jul-26 06:00N 60°24' E 005°19'0 0.0
2017-Jul-26 05:30N 60°24' E 005°19'0 0.0
2017-Jul-26 04:59N 60°24' E 005°19'0 0.0
2017-Jul-26 04:30N 60°24' E 005°19'0 0.0
2017-Jul-26 04:00N 60°24' E 005°19'0 0.0
2017-Jul-26 03:30N 60°24' E 005°19'0 0.0
2017-Jul-26 03:00N 60°24' E 005°19'0 0.0
2017-Jul-26 02:30N 60°24' E 005°19'0 0.0
2017-Jul-26 02:00N 60°24' E 005°19'0 0.0
2017-Jul-26 01:30N 60°24' E 005°19'0 0.0
2017-Jul-26 01:00N 60°24' E 005°19'0 0.0
2017-Jul-26 00:30N 60°24' E 005°19'0 0.0
2017-Jul-26 00:01N 60°24' E 005°19'0 0.0
2017-Jul-25 23:30N 60°24' E 005°19'0 0.0
2017-Jul-25 23:00N 60°24' E 005°19'0 0.0
2017-Jul-25 22:30N 60°24' E 005°19'0 0.0
2017-Jul-25 22:00N 60°24' E 005°19'0 0.0
2017-Jul-25 21:30N 60°24' E 005°19'0 0.0
2017-Jul-25 21:00N 60°24' E 005°19'0 0.0
2017-Jul-25 20:30N 60°24' E 005°19'0 0.0
2017-Jul-25 20:01N 60°24' E 005°19'0 0.0
2017-Jul-25 19:30N 60°24' E 005°19'0 0.0
2017-Jul-25 19:00N 60°24' E 005°19'0 0.0
2017-Jul-25 18:30N 60°24' E 005°19'0 0.0
2017-Jul-25 18:01N 60°24' E 005°19'4 7.6
2017-Jul-25 17:29N 60°23' E 005°11'510.5
2017-Jul-25 17:00N 60°18' E 005°08'510.7
2017-Jul-25 16:30N 60°13' E 005°10'510.8
2017-Jul-25 16:00N 60°08' E 005°11'510.8
2017-Jul-25 15:30N 60°02' E 005°10'2 4.7
2017-Jul-25 15:01N 60°00' E 005°07'0 0.0
2017-Jul-25 14:00N 60°00' E 005°07'0 0.0
2017-Jul-25 13:30N 60°00' E 005°07'0 0.0
2017-Jul-25 13:00N 60°00' E 005°07'0 0.0
2017-Jul-25 12:30N 60°00' E 005°07'0 0.0
2017-Jul-25 12:00N 60°00' E 005°07'0 0.9
2017-Jul-25 11:30N 60°01' E 005°08'510.5
2017-Jul-25 11:00N 60°05' E 005°12'1 1.7
2017-Jul-25 10:30N 60°06' E 005°13'0 0.0
2017-Jul-25 10:00N 60°06' E 005°13'0 0.0
2017-Jul-25 09:30N 60°06' E 005°13'2 4.2
2017-Jul-25 08:59N 60°08' E 005°12'510.2
2017-Jul-25 08:30N 60°07' E 005°22'1 2.3
2017-Jul-25 08:00N 60°08' E 005°24'4 8.4
2017-Jul-25 07:30N 60°07' E 005°32'510.7
2017-Jul-25 07:00N 60°07' E 005°43'0 0.6
2017-Jul-25 06:25N 60°07' E 005°44'0 0.0
2017-Jul-25 05:59N 60°07' E 005°44'2 4.5
2017-Jul-25 05:30N 60°05' E 005°44'1 1.4
2017-Jul-25 04:58N 60°04' E 005°44'3 6.4
2017-Jul-25 04:30N 60°01' E 005°43'510.9
2017-Jul-25 04:00N 59°56' E 005°45'510.5
2017-Jul-25 03:30N 59°52' E 005°38'5 9.2
2017-Jul-25 03:00N 59°55' E 005°31'3 6.4
2017-Jul-25 02:30N 59°57' E 005°27'0 0.9
2017-Jul-25 02:00N 59°58' E 005°26'5 9.9
2017-Jul-25 01:30N 59°59' E 005°17'5 9.8
2017-Jul-25 01:00N 59°55' E 005°10'2 4.8
2017-Jul-25 00:30N 59°54' E 005°06'0 0.0
2017-Jul-25 00:01N 59°54' E 005°06'0 0.0
2017-Jul-24 23:30N 59°54' E 005°06'0 0.0
2017-Jul-24 23:00N 59°54' E 005°06'1 1.9
2017-Jul-24 22:30N 59°55' E 005°05'611.7
2017-Jul-24 22:00N 60°00' E 005°06'5 9.8
2017-Jul-24 21:30N 60°05' E 005°11'510.7
2017-Jul-24 21:00N 60°10' E 005°11'510.5
2017-Jul-24 20:30N 60°15' E 005°09'5 9.4
2017-Jul-24 20:00N 60°20' E 005°10'5 9.2
2017-Jul-24 19:30N 60°24' E 005°06'510.3
2017-Jul-24 19:00N 60°28' E 004°60'510.5
2017-Jul-24 18:30N 60°33' E 004°56'510.5
2017-Jul-24 17:59N 60°38' E 004°52'510.4
2017-Jul-24 17:30N 60°43' E 004°48'510.4
2017-Jul-24 17:01N 60°48' E 004°45'5 8.8
2017-Jul-24 16:29N 60°51' E 004°51'2 4.5
2017-Jul-24 16:00N 60°54' E 004°50'14 4.8
2017-Jul-24 13:00N 61°07' E 005°02'510.4
2017-Jul-24 12:30N 61°12' E 005°01'510.4
2017-Jul-24 12:00N 61°13' E 005°12'2 4.1
2017-Jul-24 11:30N 61°12' E 005°16'0 0.0
2017-Jul-24 10:59N 61°12' E 005°16'2 4.7
2017-Jul-24 10:30N 61°13' E 005°11'510.0
2017-Jul-24 10:00N 61°12' E 005°01'611.1
2017-Jul-24 09:30N 61°06' E 005°02'510.9
2017-Jul-24 09:00N 61°01' E 004°56'510.6
2017-Jul-24 08:31N 60°56' E 004°57'510.1
2017-Jul-24 08:00N 60°51' E 004°56'510.7
2017-Jul-24 07:30N 60°50' E 004°45'510.3
2017-Jul-24 07:00N 60°45' E 004°48'510.9
2017-Jul-24 06:30N 60°40' E 004°52'611.0
2017-Jul-24 06:00N 60°35' E 004°55'510.4
2017-Jul-24 05:30N 60°30' E 004°59'510.6
2017-Jul-24 05:00N 60°25' E 005°04'511.1
2017-Jul-24 04:30N 60°21' E 005°10'4 8.8
2017-Jul-24 04:00N 60°16' E 005°09'510.4
2017-Jul-24 03:30N 60°12' E 005°13'510.5
2017-Jul-24 03:00N 60°07' E 005°17'510.6
2017-Jul-24 02:30N 60°02' E 005°20'510.4
2017-Jul-24 02:00N 59°57' E 005°26'510.8
2017-Jul-24 01:31N 59°53' E 005°32'510.7
2017-Jul-24 01:00N 59°48' E 005°33'5 9.4
2017-Jul-24 00:30N 59°44' E 005°29'5 9.9
2017-Jul-24 00:00N 59°40' E 005°22'510.2
2017-Jul-23 23:29N 59°36' E 005°17'510.5
2017-Jul-23 23:00N 59°31' E 005°13'510.6
2017-Jul-23 22:30N 59°26' E 005°14'5 9.4
2017-Jul-23 22:00N 59°22' E 005°18'510.1
2017-Jul-23 21:30N 59°17' E 005°20'4 8.8
2017-Jul-23 21:00N 59°14' E 005°27'4 8.4
2017-Jul-23 20:30N 59°13' E 005°35'510.4
2017-Jul-23 20:00N 59°16' E 005°43'5 9.8
2017-Jul-23 19:30N 59°18' E 005°52'2 4.3
2017-Jul-23 19:00N 59°18' E 005°56'1 3.0
2017-Jul-23 18:30N 59°18' E 005°59'0 0.0
2017-Jul-23 18:00N 59°18' E 005°59'5 9.6
2017-Jul-23 17:30N 59°18' E 005°50'510.6
2017-Jul-23 17:00N 59°15' E 005°41'510.8
2017-Jul-23 16:30N 59°12' E 005°32'510.0
2017-Jul-23 16:00N 59°15' E 005°25'4 8.4
2017-Jul-23 15:30N 59°18' E 005°20'5 9.9
2017-Jul-23 15:00N 59°23' E 005°18'4 8.7
2017-Jul-23 14:30N 59°27' E 005°14'511.0
2017-Jul-23 14:00N 59°32' E 005°13'611.3
2017-Jul-23 13:29N 59°38' E 005°18'511.5
2017-Jul-23 13:00N 59°42' E 005°24'511.0
2017-Jul-23 12:30N 59°47' E 005°20'510.9
2017-Jul-23 12:00N 59°52' E 005°14'610.9
2017-Jul-23 11:30N 59°57' E 005°09'4 7.4
2017-Jul-23 11:00N 60°00' E 005°07'0 0.1
2017-Jul-23 10:30N 60°00' E 005°07'0 0.0
2017-Jul-23 10:00N 60°00' E 005°07'0 0.0
2017-Jul-23 09:30N 60°00' E 005°07'0 0.0
2017-Jul-23 09:00N 60°00' E 005°07'0 0.0
2017-Jul-23 08:30N 60°00' E 005°07'0 0.0
2017-Jul-23 08:01N 60°00' E 005°07'0 0.0
2017-Jul-23 07:30N 60°00' E 005°07'0 0.0
2017-Jul-23 07:00N 60°00' E 005°07'0 0.0
2017-Jul-23 06:30N 60°00' E 005°07'0 0.0
2017-Jul-23 06:00N 60°00' E 005°07'0 0.0
2017-Jul-23 05:30N 60°00' E 005°07'0 0.0
2017-Jul-23 05:00N 60°00' E 005°07'0 0.0
2017-Jul-23 04:30N 60°00' E 005°07'0 0.0
2017-Jul-23 04:00N 60°00' E 005°07'0 0.0
2017-Jul-23 03:31N 60°00' E 005°07'0 0.0
2017-Jul-23 03:00N 60°00' E 005°07'0 0.0
2017-Jul-23 02:30N 60°00' E 005°07'0 0.0
2017-Jul-23 02:00N 60°00' E 005°07'0 0.0
2017-Jul-23 01:30N 60°00' E 005°07'3 6.9
2017-Jul-23 01:00N 60°03' E 005°10'510.2
2017-Jul-23 00:31N 60°08' E 005°11'510.1
2017-Jul-23 00:00N 60°13' E 005°10'510.3
2017-Jul-22 23:30N 60°18' E 005°08'510.2
2017-Jul-22 23:00N 60°23' E 005°11'4 8.9
2017-Jul-22 22:30N 60°27' E 005°15'5 9.3
2017-Jul-22 22:00N 60°32' E 005°18'3 5.2
2017-Jul-22 21:30N 60°31' E 005°23'1 2.8
2017-Jul-22 21:00N 60°32' E 005°20'510.8
2017-Jul-22 20:30N 60°35' E 005°11'510.8
2017-Jul-22 20:00N 60°37' E 005°02'510.6
2017-Jul-22 19:30N 60°40' E 004°52'510.9
2017-Jul-22 19:00N 60°45' E 004°48'510.5
2017-Jul-22 18:30N 60°50' E 004°45'510.6
2017-Jul-22 18:00N 60°51' E 004°55'1 1.6
2017-Jul-22 17:30N 60°52' E 004°56'3 5.5
2017-Jul-22 17:00N 60°54' E 004°58'4 8.5
2017-Jul-22 16:30N 60°58' E 005°01'4 8.6
2017-Jul-22 16:00N 61°03' E 005°01'510.0
2017-Jul-22 15:31N 61°08' E 005°02'5 9.4
2017-Jul-22 15:00N 61°12' E 005°02'7 6.9
2017-Jul-22 14:01N 61°12' E 005°16'1 2.1
2017-Jul-22 13:30N 61°12' E 005°14'510.6
2017-Jul-22 13:00N 61°13' E 005°03'5 9.2
2017-Jul-22 12:30N 61°16' E 004°55'5 9.6
2017-Jul-22 12:00N 61°19' E 005°03'510.1
2017-Jul-22 11:30N 61°23' E 005°00'510.4
2017-Jul-22 11:00N 61°29' E 004°59'510.4
2017-Jul-22 10:29N 61°34' E 004°59'510.1
2017-Jul-22 10:00N 61°39' E 004°59'510.4
2017-Jul-22 09:30N 61°44' E 004°59'510.8
2017-Jul-22 09:00N 61°48' E 005°07'510.3
2017-Jul-22 08:30N 61°51' E 005°16'5 9.6
2017-Jul-22 08:00N 61°54' E 005°08'2 4.8
2017-Jul-22 07:30N 61°57' E 005°08'0 0.0
2017-Jul-22 07:00N 61°57' E 005°08'0 0.0
2017-Jul-22 06:30N 61°57' E 005°08'2 4.5
2017-Jul-22 06:00N 61°59' E 005°09'510.1
2017-Jul-22 05:30N 62°04' E 005°07'510.5
2017-Jul-22 05:00N 62°09' E 005°05'5 9.5
2017-Jul-22 04:30N 62°13' E 005°09'510.5
2017-Jul-22 04:00N 62°16' E 005°18'510.6
2017-Jul-22 03:31N 62°18' E 005°29'510.4
2017-Jul-22 03:00N 62°19' E 005°40'4 8.1
2017-Jul-22 02:30N 62°22' E 005°46'510.0
2017-Jul-22 02:00N 62°26' E 005°53'510.8
2017-Jul-22 01:30N 62°28' E 006°03'5 9.9
2017-Jul-22 01:00N 62°32' E 006°09'510.8
2017-Jul-22 00:30N 62°36' E 006°17'510.6
2017-Jul-22 00:00N 62°40' E 006°25'510.3
2017-Jul-21 23:30N 62°44' E 006°31'510.3
2017-Jul-21 23:00N 62°49' E 006°38'510.3
2017-Jul-21 22:30N 62°53' E 006°44'510.3
2017-Jul-21 21:59N 62°57' E 006°51'510.0
2017-Jul-21 21:30N 62°60' E 006°60'510.2
2017-Jul-21 21:00N 63°02' E 007°10'510.0
2017-Jul-21 20:30N 63°03' E 007°21'3 5.4
2017-Jul-21 20:00N 63°03' E 007°27'0 0.0
2017-Jul-21 19:31N 63°03' E 007°27'0 0.0
2017-Jul-21 19:00N 63°03' E 007°27'0 0.0
2017-Jul-21 18:30N 63°03' E 007°27'0 0.0
2017-Jul-21 18:01N 63°03' E 007°27'0 0.0
2017-Jul-21 17:31N 63°03' E 007°27'0 0.0
2017-Jul-21 17:00N 63°03' E 007°27'0 0.0
2017-Jul-21 16:30N 63°03' E 007°27'0 0.0
2017-Jul-21 16:00N 63°03' E 007°27'0 0.0
2017-Jul-21 15:30N 63°03' E 007°27'0 0.0
2017-Jul-21 15:01N 63°03' E 007°27'0 0.0
2017-Jul-21 14:30N 63°03' E 007°27'1 2.6
2017-Jul-21 14:01N 63°05' E 007°26'510.5
2017-Jul-21 13:31N 63°07' E 007°36'510.7
2017-Jul-21 13:01N 63°11' E 007°45'510.8
2017-Jul-21 12:31N 63°13' E 007°55'510.8
2017-Jul-21 12:00N 63°16' E 008°06'510.5
2017-Jul-21 11:30N 63°19' E 008°16'5 9.6
2017-Jul-21 11:00N 63°24' E 008°16'5 9.4
2017-Jul-21 10:30N 63°29' E 008°13'510.2
2017-Jul-21 10:00N 63°34' E 008°13'510.7
2017-Jul-21 09:30N 63°39' E 008°14'5 9.8
2017-Jul-21 09:00N 63°42' E 008°22'5 9.9
2017-Jul-21 08:29N 63°43' E 008°34'0 0.3
2017-Jul-21 08:00N 63°43' E 008°34'0 0.0
2017-Jul-21 07:30N 63°43' E 008°34'0 0.0
2017-Jul-21 07:00N 63°43' E 008°34'0 0.0
2017-Jul-21 06:30N 63°43' E 008°34'2 4.2
2017-Jul-21 06:00N 63°43' E 008°29'510.4
2017-Jul-21 05:30N 63°42' E 008°18'5 9.7
2017-Jul-21 05:00N 63°37' E 008°14'510.7
2017-Jul-21 04:30N 63°32' E 008°13'611.0
2017-Jul-21 04:00N 63°26' E 008°14'510.9
2017-Jul-21 03:30N 63°21' E 008°18'510.2
2017-Jul-21 03:00N 63°17' E 008°11'510.0
2017-Jul-21 02:30N 63°15' E 008°01'510.0
2017-Jul-21 02:01N 63°12' E 007°52'510.3
2017-Jul-21 01:30N 63°09' E 007°42'510.4
2017-Jul-21 01:00N 63°06' E 007°32'510.3
2017-Jul-21 00:30N 63°04' E 007°23'510.4
2017-Jul-21 00:00N 63°02' E 007°12'510.3
2017-Jul-20 23:30N 63°00' E 007°01'510.0
2017-Jul-20 23:00N 62°58' E 006°51'5 9.9
2017-Jul-20 22:30N 62°54' E 006°45'510.2
2017-Jul-20 22:00N 62°50' E 006°39'510.6
2017-Jul-20 21:30N 62°45' E 006°33'510.8
2017-Jul-20 21:00N 62°41' E 006°27'510.5
2017-Jul-20 20:30N 62°37' E 006°18'510.2
2017-Jul-20 20:00N 62°33' E 006°11'510.1
2017-Jul-20 19:30N 62°29' E 006°05'510.7
2017-Jul-20 19:00N 62°26' E 005°55'5 9.9
2017-Jul-20 18:29N 62°22' E 005°48'5 9.2
2017-Jul-20 18:00N 62°19' E 005°41'510.6
2017-Jul-20 17:30N 62°18' E 005°30'510.4
2017-Jul-20 17:00N 62°16' E 005°19'510.2
2017-Jul-20 16:30N 62°13' E 005°10'5 9.6
2017-Jul-20 16:00N 62°10' E 005°04'510.9
2017-Jul-20 15:30N 62°04' E 005°07'510.6
2017-Jul-20 15:00N 61°59' E 005°09'7 6.9
2017-Jul-20 14:00N 61°54' E 005°19'1 1.7
2017-Jul-20 13:30N 61°53' E 005°20'0 0.0
2017-Jul-20 13:00N 61°53' E 005°20'0 0.0
2017-Jul-20 12:30N 61°53' E 005°20'0 0.0
2017-Jul-20 12:00N 61°53' E 005°20'0 0.0
2017-Jul-20 11:30N 61°53' E 005°20'2 4.4
2017-Jul-20 11:00N 61°54' E 005°15'2 3.8
2017-Jul-20 10:30N 61°52' E 005°15'3 5.6
2017-Jul-20 09:59N 61°49' E 005°15'1 1.5
2017-Jul-20 09:30N 61°49' E 005°13'510.6
2017-Jul-20 09:00N 61°47' E 005°04'510.4
2017-Jul-20 08:30N 61°42' E 004°58'510.7
2017-Jul-20 08:00N 61°37' E 004°58'5 9.6
2017-Jul-20 07:30N 61°32' E 005°00'510.5
2017-Jul-20 07:00N 61°27' E 004°56'610.9
2017-Jul-20 06:30N 61°23' E 004°49'611.1
2017-Jul-20 06:00N 61°17' E 004°49'611.2
2017-Jul-20 05:30N 61°13' E 004°57'510.8
2017-Jul-20 05:00N 61°13' E 005°08'4 7.8
2017-Jul-20 04:31N 61°12' E 005°16'0 0.0
2017-Jul-20 04:00N 61°12' E 005°16'4 8.6
2017-Jul-20 03:30N 61°13' E 005°07'4 8.5
2017-Jul-20 03:00N 61°10' E 005°01'510.6
2017-Jul-20 02:30N 61°04' E 004°60'510.1
2017-Jul-20 02:00N 61°01' E 004°52'510.0
2017-Jul-20 01:30N 60°57' E 004°46'611.4
2017-Jul-20 01:00N 60°51' E 004°46'510.5
2017-Jul-20 00:30N 60°46' E 004°47'611.0
2017-Jul-20 00:00N 60°41' E 004°50'611.1
2017-Jul-19 23:30N 60°36' E 004°54'510.8
2017-Jul-19 23:00N 60°31' E 004°58'510.5
2017-Jul-19 22:30N 60°26' E 005°03'510.4
2017-Jul-19 22:00N 60°22' E 005°10'5 9.6
2017-Jul-19 21:29N 60°17' E 005°09'510.7
2017-Jul-19 21:00N 60°13' E 005°12'611.0
2017-Jul-19 20:30N 60°08' E 005°19'5 9.5
2017-Jul-19 20:00N 60°09' E 005°29'611.0
2017-Jul-19 19:29N 60°13' E 005°36'3 6.3
2017-Jul-19 18:59N 60°16' E 005°40'2 4.6
2017-Jul-19 18:31N 60°14' E 005°37'510.5
2017-Jul-19 18:00N 60°10' E 005°31'5 9.6
2017-Jul-19 17:30N 60°07' E 005°22'5 9.8
2017-Jul-19 17:00N 60°08' E 005°13'510.2
2017-Jul-19 16:30N 60°03' E 005°10'3 6.5
2017-Jul-19 16:00N 60°00' E 005°07'0 0.0
2017-Jul-19 15:30N 60°00' E 005°07'0 0.0
2017-Jul-19 15:00N 60°00' E 005°07'0 0.0
2017-Jul-19 14:30N 60°00' E 005°07'0 0.9
2017-Jul-19 14:00N 60°01' E 005°07'3 5.7
2017-Jul-19 13:30N 59°58' E 005°05'0 0.7
2017-Jul-19 13:00N 59°58' E 005°05'1 1.4
2017-Jul-19 12:30N 59°58' E 005°05'2 4.2
2017-Jul-19 12:00N 60°00' E 005°07'0 0.0
2017-Jul-19 11:30N 60°00' E 005°07'0 0.0
2017-Jul-19 11:00N 60°00' E 005°07'0 0.0
2017-Jul-19 10:30N 60°00' E 005°07'0 0.0
2017-Jul-19 10:00N 60°00' E 005°07'0 0.0
2017-Jul-19 09:30N 60°00' E 005°07'0 0.0
2017-Jul-19 09:00N 60°00' E 005°07'2 3.7
2017-Jul-19 08:30N 60°02' E 005°10'510.1
2017-Jul-19 08:00N 59°59' E 005°18'5 9.7
2017-Jul-19 07:30N 59°57' E 005°27'0 0.3
2017-Jul-19 07:00N 59°57' E 005°27'5 9.7
2017-Jul-19 06:30N 59°59' E 005°18'5 9.8
2017-Jul-19 06:00N 59°55' E 005°12'3 6.4
2017-Jul-19 05:30N 59°54' E 005°06'0 0.0
2017-Jul-19 04:59N 59°54' E 005°06'0 0.0
2017-Jul-19 04:30N 59°54' E 005°06'0 0.9
2017-Jul-19 04:00N 59°54' E 005°05'5 9.7
2017-Jul-19 03:30N 59°59' E 005°06'1 2.6
2017-Jul-19 03:00N 60°00' E 005°07'0 0.0
2017-Jul-19 02:30N 60°00' E 005°07'0 0.0
2017-Jul-19 02:00N 60°00' E 005°07'2 3.5
2017-Jul-19 01:30N 60°02' E 005°09'4 9.0
2017-Jul-19 01:00N 60°06' E 005°13'0 0.2
2017-Jul-19 00:30N 60°06' E 005°13'0 0.4
2017-Jul-19 00:00N 60°06' E 005°13'5 9.0
2017-Jul-18 23:30N 60°10' E 005°11'611.1
2017-Jul-18 23:00N 60°16' E 005°09'510.2
2017-Jul-18 22:31N 60°20' E 005°10'510.0
2017-Jul-18 22:00N 60°25' E 005°05'510.6
2017-Jul-18 21:30N 60°29' E 004°59'510.8
2017-Jul-18 21:00N 60°34' E 004°55'510.9
2017-Jul-18 20:30N 60°39' E 004°51'610.9
2017-Jul-18 20:00N 60°44' E 004°47'510.7
2017-Jul-18 19:30N 60°50' E 004°45'5 9.3
2017-Jul-18 19:00N 60°54' E 004°50'0 0.1
2017-Jul-18 18:30N 60°54' E 004°50'0 0.0
2017-Jul-18 18:00N 60°54' E 004°50'1 2.0
2017-Jul-18 17:30N 60°53' E 004°50'4 7.8
2017-Jul-18 17:00N 60°53' E 004°58'  
Track history (hours):
 
Tides and Currents Weather Stations Pressure Air Temp Water Temp Dewpoint Dewpoint Depression Visibility Wind Speed Wind Dir Waves Ship Positions

Hordafor III

Last reported at 2017-Jul-28 16:30 UTC. Time now 2017-Jul-28 16:41 UTC.
Position N 60°00' E 005°07'.

Length 50 m; draft 6 m.

Type: Cargo ship. MMSI: 258044000.

Date/timePositionNaut miles runAvg speedWind from/ knotsBaromVisibWave heightAir tempDewpointWater temp
2017-Jul-28 16:30N 60°00' E 005°07'2 4.6
2017-Jul-28 16:00N 60°02' E 005°10'510.0
2017-Jul-28 15:30N 60°07' E 005°11'5 9.8
2017-Jul-28 15:01N 60°12' E 005°11'5 9.7
2017-Jul-28 14:31N 60°17' E 005°09'5 9.4
2017-Jul-28 13:59N 60°21' E 005°10'5 9.2
2017-Jul-28 13:30N 60°25' E 005°04'5 9.5
2017-Jul-28 13:00N 60°29' E 004°59'5 9.9
2017-Jul-28 12:30N 60°34' E 004°56'5 9.8
2017-Jul-28 12:00N 60°38' E 004°52'5 9.9
2017-Jul-28 11:29N 60°43' E 004°49'510.0
2017-Jul-28 11:00N 60°48' E 004°45'5 9.5
2017-Jul-28 10:30N 60°52' E 004°47'5 9.8
2017-Jul-28 10:00N 60°57' E 004°45'5 9.8
2017-Jul-28 09:30N 61°02' E 004°45'5 8.9
2017-Jul-28 09:00N 61°07' E 004°44'5 9.8
2017-Jul-28 08:30N 61°12' E 004°43'4 9.1
2017-Jul-28 08:00N 61°16' E 004°45'5 9.1
2017-Jul-28 07:30N 61°20' E 004°48'5 9.5
2017-Jul-28 07:00N 61°25' E 004°51'5 9.5
2017-Jul-28 06:30N 61°28' E 004°58'5 9.5
2017-Jul-28 06:00N 61°33' E 004°60'4 8.7
2017-Jul-28 05:30N 61°37' E 004°59'510.0
2017-Jul-28 05:00N 61°42' E 004°58'5 9.3
2017-Jul-28 04:30N 61°46' E 005°03'5 9.8
2017-Jul-28 04:00N 61°49' E 005°11'4 6.9
2017-Jul-28 03:30N 61°52' E 005°14'4 9.0
2017-Jul-28 03:00N 61°55' E 005°07'5 9.3
2017-Jul-28 02:30N 61°60' E 005°10'510.1
2017-Jul-28 02:00N 62°05' E 005°07'5 9.9
2017-Jul-28 01:30N 62°09' E 005°04'5 9.4
2017-Jul-28 01:00N 62°14' E 005°10'510.4
2017-Jul-28 00:29N 62°16' E 005°19'510.2
2017-Jul-28 00:00N 62°18' E 005°29'4 8.9
2017-Jul-27 23:30N 62°19' E 005°39'4 7.8
2017-Jul-27 23:00N 62°21' E 005°46'5 9.7
2017-Jul-27 22:30N 62°25' E 005°52'5 9.6
2017-Jul-27 22:00N 62°27' E 006°01'5 9.4
2017-Jul-27 21:30N 62°30' E 006°09'5 9.5
2017-Jul-27 20:58N 62°35' E 006°13'4 9.1
2017-Jul-27 20:30N 62°38' E 006°20'5 9.3
2017-Jul-27 20:00N 62°41' E 006°27'5 9.5
2017-Jul-27 19:30N 62°45' E 006°32'5 9.6
2017-Jul-27 19:01N 62°49' E 006°38'5 9.3
2017-Jul-27 18:30N 62°53' E 006°44'5 9.7
2017-Jul-27 18:00N 62°57' E 006°50'5 9.5
2017-Jul-27 17:30N 62°60' E 006°59'5 9.9
2017-Jul-27 17:00N 63°02' E 007°09'510.0
2017-Jul-27 16:30N 63°03' E 007°19'3 6.6
2017-Jul-27 16:00N 63°03' E 007°27'0 0.0
2017-Jul-27 15:30N 63°03' E 007°27'0 0.0
2017-Jul-27 15:00N 63°03' E 007°27'0 0.0
2017-Jul-27 14:00N 63°03' E 007°27'0 0.0
2017-Jul-27 13:30N 63°03' E 007°27'0 0.0
2017-Jul-27 13:00N 63°03' E 007°27'0 0.0
2017-Jul-27 12:30N 63°03' E 007°27'3 5.8
2017-Jul-27 12:00N 63°03' E 007°20'510.4
2017-Jul-27 11:30N 63°02' E 007°09'510.3
2017-Jul-27 11:00N 62°60' E 006°59'5 9.6
2017-Jul-27 10:30N 62°57' E 006°50'510.1
2017-Jul-27 10:00N 62°53' E 006°44'5 9.4
2017-Jul-27 09:30N 62°48' E 006°40'1 1.1
2017-Jul-27 09:00N 62°48' E 006°40'0 0.0
2017-Jul-27 08:30N 62°48' E 006°40'1 2.1
2017-Jul-27 08:00N 62°49' E 006°39'510.2
2017-Jul-27 07:30N 62°45' E 006°32'510.7
2017-Jul-27 07:00N 62°40' E 006°25'510.2
2017-Jul-27 06:30N 62°37' E 006°18'510.3
2017-Jul-27 06:00N 62°33' E 006°10'5 9.5
2017-Jul-27 05:30N 62°29' E 006°05'510.0
2017-Jul-27 05:00N 62°26' E 005°56'5 9.9
2017-Jul-27 04:31N 62°23' E 005°48'5 9.0
2017-Jul-27 04:00N 62°19' E 005°42'5 9.8
2017-Jul-27 03:30N 62°18' E 005°31'510.2
2017-Jul-27 03:00N 62°17' E 005°21'510.1
2017-Jul-27 02:30N 62°14' E 005°12'5 9.5
2017-Jul-27 02:00N 62°11' E 005°05'510.3
2017-Jul-27 01:30N 62°05' E 005°06'510.5
2017-Jul-27 01:00N 62°01' E 005°09'510.2
2017-Jul-27 00:30N 61°56' E 005°07'5 8.9
2017-Jul-26 23:59N 61°52' E 005°14'3 6.7
2017-Jul-26 23:30N 61°49' E 005°11'5 9.8
2017-Jul-26 22:59N 61°46' E 005°03'5 9.3
2017-Jul-26 22:30N 61°42' E 004°58'510.1
2017-Jul-26 22:00N 61°37' E 004°59'4 9.0
2017-Jul-26 21:31N 61°33' E 005°00'510.2
2017-Jul-26 21:00N 61°28' E 004°59'5 9.6
2017-Jul-26 20:30N 61°23' E 005°01'5 9.5
2017-Jul-26 20:00N 61°18' E 005°03'5 9.3
2017-Jul-26 19:30N 61°16' E 004°55'4 8.8
2017-Jul-26 19:00N 61°13' E 005°01'510.0
2017-Jul-26 18:30N 61°13' E 005°11'2 4.4
2017-Jul-26 18:00N 61°12' E 005°16'0 0.0
2017-Jul-26 17:30N 61°12' E 005°16'0 0.0
2017-Jul-26 16:59N 61°12' E 005°16'0 0.0
2017-Jul-26 16:30N 61°12' E 005°16'0 0.1
2017-Jul-26 16:00N 61°12' E 005°16'5 9.7
2017-Jul-26 15:30N 61°13' E 005°06'4 7.8
2017-Jul-26 15:00N 61°09' E 005°01'9 9.1
2017-Jul-26 14:01N 61°01' E 004°52'5 9.5
2017-Jul-26 13:30N 60°58' E 004°46'510.1
2017-Jul-26 13:00N 60°53' E 004°47'5 9.5
2017-Jul-26 12:30N 60°48' E 004°45'510.2
2017-Jul-26 12:00N 60°43' E 004°49'510.4
2017-Jul-26 11:30N 60°38' E 004°53'510.5
2017-Jul-26 11:00N 60°33' E 004°56'510.1
2017-Jul-26 10:30N 60°29' E 004°60'510.0
2017-Jul-26 10:00N 60°25' E 005°05'4 8.8
2017-Jul-26 09:30N 60°24' E 005°14'2 4.8
2017-Jul-26 09:00N 60°24' E 005°19'0 0.0
2017-Jul-26 08:29N 60°24' E 005°19'0 0.0
2017-Jul-26 08:00N 60°24' E 005°19'0 0.0
2017-Jul-26 07:30N 60°24' E 005°19'0 0.0
2017-Jul-26 07:00N 60°24' E 005°19'0 0.0
2017-Jul-26 06:30N 60°24' E 005°19'0 0.0
2017-Jul-26 06:00N 60°24' E 005°19'0 0.0
2017-Jul-26 05:30N 60°24' E 005°19'0 0.0
2017-Jul-26 04:59N 60°24' E 005°19'0 0.0
2017-Jul-26 04:30N 60°24' E 005°19'0 0.0
2017-Jul-26 04:00N 60°24' E 005°19'0 0.0
2017-Jul-26 03:30N 60°24' E 005°19'0 0.0
2017-Jul-26 03:00N 60°24' E 005°19'0 0.0
2017-Jul-26 02:30N 60°24' E 005°19'0 0.0
2017-Jul-26 02:00N 60°24' E 005°19'0 0.0
2017-Jul-26 01:30N 60°24' E 005°19'0 0.0
2017-Jul-26 01:00N 60°24' E 005°19'0 0.0
2017-Jul-26 00:30N 60°24' E 005°19'0 0.0
2017-Jul-26 00:01N 60°24' E 005°19'0 0.0
2017-Jul-25 23:30N 60°24' E 005°19'0 0.0
2017-Jul-25 23:00N 60°24' E 005°19'0 0.0
2017-Jul-25 22:30N 60°24' E 005°19'0 0.0
2017-Jul-25 22:00N 60°24' E 005°19'0 0.0
2017-Jul-25 21:30N 60°24' E 005°19'0 0.0
2017-Jul-25 21:00N 60°24' E 005°19'0 0.0
2017-Jul-25 20:30N 60°24' E 005°19'0 0.0
2017-Jul-25 20:01N 60°24' E 005°19'0 0.0
2017-Jul-25 19:30N 60°24' E 005°19'0 0.0
2017-Jul-25 19:00N 60°24' E 005°19'0 0.0
2017-Jul-25 18:30N 60°24' E 005°19'0 0.0
2017-Jul-25 18:01N 60°24' E 005°19'4 7.6
2017-Jul-25 17:29N 60°23' E 005°11'510.5
2017-Jul-25 17:00N 60°18' E 005°08'510.7
2017-Jul-25 16:30N 60°13' E 005°10'510.8
2017-Jul-25 16:00N 60°08' E 005°11'510.8
2017-Jul-25 15:30N 60°02' E 005°10'2 4.7
2017-Jul-25 15:01N 60°00' E 005°07'0 0.0
2017-Jul-25 14:00N 60°00' E 005°07'0 0.0
2017-Jul-25 13:30N 60°00' E 005°07'0 0.0
2017-Jul-25 13:00N 60°00' E 005°07'0 0.0
2017-Jul-25 12:30N 60°00' E 005°07'0 0.0
2017-Jul-25 12:00N 60°00' E 005°07'0 0.9
2017-Jul-25 11:30N 60°01' E 005°08'510.5
2017-Jul-25 11:00N 60°05' E 005°12'1 1.7
2017-Jul-25 10:30N 60°06' E 005°13'0 0.0
2017-Jul-25 10:00N 60°06' E 005°13'0 0.0
2017-Jul-25 09:30N 60°06' E 005°13'2 4.2
2017-Jul-25 08:59N 60°08' E 005°12'510.2
2017-Jul-25 08:30N 60°07' E 005°22'1 2.3
2017-Jul-25 08:00N 60°08' E 005°24'4 8.4
2017-Jul-25 07:30N 60°07' E 005°32'510.7
2017-Jul-25 07:00N 60°07' E 005°43'0 0.6
2017-Jul-25 06:25N 60°07' E 005°44'0 0.0
2017-Jul-25 05:59N 60°07' E 005°44'2 4.5
2017-Jul-25 05:30N 60°05' E 005°44'1 1.4
2017-Jul-25 04:58N 60°04' E 005°44'3 6.4
2017-Jul-25 04:30N 60°01' E 005°43'510.9
2017-Jul-25 04:00N 59°56' E 005°45'510.5
2017-Jul-25 03:30N 59°52' E 005°38'5 9.2
2017-Jul-25 03:00N 59°55' E 005°31'3 6.4
2017-Jul-25 02:30N 59°57' E 005°27'0 0.9
2017-Jul-25 02:00N 59°58' E 005°26'5 9.9
2017-Jul-25 01:30N 59°59' E 005°17'5 9.8
2017-Jul-25 01:00N 59°55' E 005°10'2 4.8
2017-Jul-25 00:30N 59°54' E 005°06'0 0.0
2017-Jul-25 00:01N 59°54' E 005°06'0 0.0
2017-Jul-24 23:30N 59°54' E 005°06'0 0.0
2017-Jul-24 23:00N 59°54' E 005°06'1 1.9
2017-Jul-24 22:30N 59°55' E 005°05'611.7
2017-Jul-24 22:00N 60°00' E 005°06'5 9.8
2017-Jul-24 21:30N 60°05' E 005°11'510.7
2017-Jul-24 21:00N 60°10' E 005°11'510.5
2017-Jul-24 20:30N 60°15' E 005°09'5 9.4
2017-Jul-24 20:00N 60°20' E 005°10'5 9.2
2017-Jul-24 19:30N 60°24' E 005°06'510.3
2017-Jul-24 19:00N 60°28' E 004°60'510.5
2017-Jul-24 18:30N 60°33' E 004°56'510.5
2017-Jul-24 17:59N 60°38' E 004°52'510.4
2017-Jul-24 17:30N 60°43' E 004°48'510.4
2017-Jul-24 17:01N 60°48' E 004°45'5 8.8
2017-Jul-24 16:29N 60°51' E 004°51'2 4.5
2017-Jul-24 16:00N 60°54' E 004°50'14 4.8
2017-Jul-24 13:00N 61°07' E 005°02'510.4
2017-Jul-24 12:30N 61°12' E 005°01'510.4
2017-Jul-24 12:00N 61°13' E 005°12'2 4.1
2017-Jul-24 11:30N 61°12' E 005°16'0 0.0
2017-Jul-24 10:59N 61°12' E 005°16'2 4.7
2017-Jul-24 10:30N 61°13' E 005°11'510.0
2017-Jul-24 10:00N 61°12' E 005°01'611.1
2017-Jul-24 09:30N 61°06' E 005°02'510.9
2017-Jul-24 09:00N 61°01' E 004°56'510.6
2017-Jul-24 08:31N 60°56' E 004°57'510.1
2017-Jul-24 08:00N 60°51' E 004°56'510.7
2017-Jul-24 07:30N 60°50' E 004°45'510.3
2017-Jul-24 07:00N 60°45' E 004°48'510.9
2017-Jul-24 06:30N 60°40' E 004°52'611.0
2017-Jul-24 06:00N 60°35' E 004°55'510.4
2017-Jul-24 05:30N 60°30' E 004°59'510.6
2017-Jul-24 05:00N 60°25' E 005°04'511.1
2017-Jul-24 04:30N 60°21' E 005°10'4 8.8
2017-Jul-24 04:00N 60°16' E 005°09'510.4
2017-Jul-24 03:30N 60°12' E 005°13'510.5
2017-Jul-24 03:00N 60°07' E 005°17'510.6
2017-Jul-24 02:30N 60°02' E 005°20'510.4
2017-Jul-24 02:00N 59°57' E 005°26'510.8
2017-Jul-24 01:31N 59°53' E 005°32'510.7
2017-Jul-24 01:00N 59°48' E 005°33'5 9.4
2017-Jul-24 00:30N 59°44' E 005°29'5 9.9
2017-Jul-24 00:00N 59°40' E 005°22'510.2
2017-Jul-23 23:29N 59°36' E 005°17'510.5
2017-Jul-23 23:00N 59°31' E 005°13'510.6
2017-Jul-23 22:30N 59°26' E 005°14'5 9.4
2017-Jul-23 22:00N 59°22' E 005°18'510.1
2017-Jul-23 21:30N 59°17' E 005°20'4 8.8
2017-Jul-23 21:00N 59°14' E 005°27'4 8.4
2017-Jul-23 20:30N 59°13' E 005°35'510.4
2017-Jul-23 20:00N 59°16' E 005°43'5 9.8
2017-Jul-23 19:30N 59°18' E 005°52'2 4.3
2017-Jul-23 19:00N 59°18' E 005°56'1 3.0
2017-Jul-23 18:30N 59°18' E 005°59'0 0.0
2017-Jul-23 18:00N 59°18' E 005°59'5 9.6
2017-Jul-23 17:30N 59°18' E 005°50'510.6
2017-Jul-23 17:00N 59°15' E 005°41'510.8
2017-Jul-23 16:30N 59°12' E 005°32'510.0
2017-Jul-23 16:00N 59°15' E 005°25'4 8.4
2017-Jul-23 15:30N 59°18' E 005°20'5 9.9
2017-Jul-23 15:00N 59°23' E 005°18'4 8.7
2017-Jul-23 14:30N 59°27' E 005°14'511.0
2017-Jul-23 14:00N 59°32' E 005°13'611.3
2017-Jul-23 13:29N 59°38' E 005°18'511.5
2017-Jul-23 13:00N 59°42' E 005°24'511.0
2017-Jul-23 12:30N 59°47' E 005°20'510.9
2017-Jul-23 12:00N 59°52' E 005°14'610.9
2017-Jul-23 11:30N 59°57' E 005°09'4 7.4
2017-Jul-23 11:00N 60°00' E 005°07'0 0.1
2017-Jul-23 10:30N 60°00' E 005°07'0 0.0
2017-Jul-23 10:00N 60°00' E 005°07'0 0.0
2017-Jul-23 09:30N 60°00' E 005°07'0 0.0
2017-Jul-23 09:00N 60°00' E 005°07'0 0.0
2017-Jul-23 08:30N 60°00' E 005°07'0 0.0
2017-Jul-23 08:01N 60°00' E 005°07'0 0.0
2017-Jul-23 07:30N 60°00' E 005°07'0 0.0
2017-Jul-23 07:00N 60°00' E 005°07'0 0.0
2017-Jul-23 06:30N 60°00' E 005°07'0 0.0
2017-Jul-23 06:00N 60°00' E 005°07'0 0.0
2017-Jul-23 05:30N 60°00' E 005°07'0 0.0
2017-Jul-23 05:00N 60°00' E 005°07'0 0.0
2017-Jul-23 04:30N 60°00' E 005°07'0 0.0
2017-Jul-23 04:00N 60°00' E 005°07'0 0.0
2017-Jul-23 03:31N 60°00' E 005°07'0 0.0
2017-Jul-23 03:00N 60°00' E 005°07'0 0.0
2017-Jul-23 02:30N 60°00' E 005°07'0 0.0
2017-Jul-23 02:00N 60°00' E 005°07'0 0.0
2017-Jul-23 01:30N 60°00' E 005°07'3 6.9
2017-Jul-23 01:00N 60°03' E 005°10'510.2
2017-Jul-23 00:31N 60°08' E 005°11'510.1
2017-Jul-23 00:00N 60°13' E 005°10'510.3
2017-Jul-22 23:30N 60°18' E 005°08'510.2
2017-Jul-22 23:00N 60°23' E 005°11'4 8.9
2017-Jul-22 22:30N 60°27' E 005°15'5 9.3
2017-Jul-22 22:00N 60°32' E 005°18'3 5.2
2017-Jul-22 21:30N 60°31' E 005°23'1 2.8
2017-Jul-22 21:00N 60°32' E 005°20'510.8
2017-Jul-22 20:30N 60°35' E 005°11'510.8
2017-Jul-22 20:00N 60°37' E 005°02'510.6
2017-Jul-22 19:30N 60°40' E 004°52'510.9
2017-Jul-22 19:00N 60°45' E 004°48'510.5
2017-Jul-22 18:30N 60°50' E 004°45'510.6
2017-Jul-22 18:00N 60°51' E 004°55'1 1.6
2017-Jul-22 17:30N 60°52' E 004°56'3 5.5
2017-Jul-22 17:00N 60°54' E 004°58'4 8.5
2017-Jul-22 16:30N 60°58' E 005°01'4 8.6
2017-Jul-22 16:00N 61°03' E 005°01'510.0
2017-Jul-22 15:31N 61°08' E 005°02'5 9.4
2017-Jul-22 15:00N 61°12' E 005°02'7 6.9
2017-Jul-22 14:01N 61°12' E 005°16'1 2.1
2017-Jul-22 13:30N 61°12' E 005°14'510.6
2017-Jul-22 13:00N 61°13' E 005°03'5 9.2
2017-Jul-22 12:30N 61°16' E 004°55'5 9.6
2017-Jul-22 12:00N 61°19' E 005°03'510.1
2017-Jul-22 11:30N 61°23' E 005°00'510.4
2017-Jul-22 11:00N 61°29' E 004°59'510.4
2017-Jul-22 10:29N 61°34' E 004°59'510.1
2017-Jul-22 10:00N 61°39' E 004°59'510.4
2017-Jul-22 09:30N 61°44' E 004°59'510.8
2017-Jul-22 09:00N 61°48' E 005°07'510.3
2017-Jul-22 08:30N 61°51' E 005°16'5 9.6
2017-Jul-22 08:00N 61°54' E 005°08'2 4.8
2017-Jul-22 07:30N 61°57' E 005°08'0 0.0
2017-Jul-22 07:00N 61°57' E 005°08'0 0.0
2017-Jul-22 06:30N 61°57' E 005°08'2 4.5
2017-Jul-22 06:00N 61°59' E 005°09'510.1
2017-Jul-22 05:30N 62°04' E 005°07'510.5
2017-Jul-22 05:00N 62°09' E 005°05'5 9.5
2017-Jul-22 04:30N 62°13' E 005°09'510.5
2017-Jul-22 04:00N 62°16' E 005°18'510.6
2017-Jul-22 03:31N 62°18' E 005°29'510.4
2017-Jul-22 03:00N 62°19' E 005°40'4 8.1
2017-Jul-22 02:30N 62°22' E 005°46'510.0
2017-Jul-22 02:00N 62°26' E 005°53'510.8
2017-Jul-22 01:30N 62°28' E 006°03'5 9.9
2017-Jul-22 01:00N 62°32' E 006°09'510.8
2017-Jul-22 00:30N 62°36' E 006°17'510.6
2017-Jul-22 00:00N 62°40' E 006°25'510.3
2017-Jul-21 23:30N 62°44' E 006°31'510.3
2017-Jul-21 23:00N 62°49' E 006°38'510.3
2017-Jul-21 22:30N 62°53' E 006°44'510.3
2017-Jul-21 21:59N 62°57' E 006°51'510.0
2017-Jul-21 21:30N 62°60' E 006°60'510.2
2017-Jul-21 21:00N 63°02' E 007°10'510.0
2017-Jul-21 20:30N 63°03' E 007°21'3 5.4
2017-Jul-21 20:00N 63°03' E 007°27'0 0.0
2017-Jul-21 19:31N 63°03' E 007°27'0 0.0
2017-Jul-21 19:00N 63°03' E 007°27'0 0.0
2017-Jul-21 18:30N 63°03' E 007°27'0 0.0
2017-Jul-21 18:01N 63°03' E 007°27'0 0.0
2017-Jul-21 17:31N 63°03' E 007°27'0 0.0
2017-Jul-21 17:00N 63°03' E 007°27'0 0.0
2017-Jul-21 16:30N 63°03' E 007°27'0 0.0
2017-Jul-21 16:00N 63°03' E 007°27'0 0.0
2017-Jul-21 15:30N 63°03' E 007°27'0 0.0
2017-Jul-21 15:01N 63°03' E 007°27'0 0.0
2017-Jul-21 14:30N 63°03' E 007°27'1 2.6
2017-Jul-21 14:01N 63°05' E 007°26'510.5
2017-Jul-21 13:31N 63°07' E 007°36'510.7
2017-Jul-21 13:01N 63°11' E 007°45'510.8
2017-Jul-21 12:31N 63°13' E 007°55'510.8
2017-Jul-21 12:00N 63°16' E 008°06'510.5
2017-Jul-21 11:30N 63°19' E 008°16'5 9.6
2017-Jul-21 11:00N 63°24' E 008°16'5 9.4
2017-Jul-21 10:30N 63°29' E 008°13'510.2
2017-Jul-21 10:00N 63°34' E 008°13'510.7
2017-Jul-21 09:30N 63°39' E 008°14'5 9.8
2017-Jul-21 09:00N 63°42' E 008°22'5 9.9
2017-Jul-21 08:29N 63°43' E 008°34'0 0.3
2017-Jul-21 08:00N 63°43' E 008°34'0 0.0
2017-Jul-21 07:30N 63°43' E 008°34'0 0.0
2017-Jul-21 07:00N 63°43' E 008°34'0 0.0
2017-Jul-21 06:30N 63°43' E 008°34'2 4.2
2017-Jul-21 06:00N 63°43' E 008°29'510.4
2017-Jul-21 05:30N 63°42' E 008°18'5 9.7
2017-Jul-21 05:00N 63°37' E 008°14'510.7
2017-Jul-21 04:30N 63°32' E 008°13'611.0
2017-Jul-21 04:00N 63°26' E 008°14'510.9
2017-Jul-21 03:30N 63°21' E 008°18'510.2
2017-Jul-21 03:00N 63°17' E 008°11'510.0
2017-Jul-21 02:30N 63°15' E 008°01'510.0
2017-Jul-21 02:01N 63°12' E 007°52'510.3
2017-Jul-21 01:30N 63°09' E 007°42'510.4
2017-Jul-21 01:00N 63°06' E 007°32'510.3
2017-Jul-21 00:30N 63°04' E 007°23'510.4
2017-Jul-21 00:00N 63°02' E 007°12'510.3
2017-Jul-20 23:30N 63°00' E 007°01'510.0
2017-Jul-20 23:00N 62°58' E 006°51'5 9.9
2017-Jul-20 22:30N 62°54' E 006°45'510.2
2017-Jul-20 22:00N 62°50' E 006°39'510.6
2017-Jul-20 21:30N 62°45' E 006°33'510.8
2017-Jul-20 21:00N 62°41' E 006°27'510.5
2017-Jul-20 20:30N 62°37' E 006°18'510.2
2017-Jul-20 20:00N 62°33' E 006°11'510.1
2017-Jul-20 19:30N 62°29' E 006°05'510.7
2017-Jul-20 19:00N 62°26' E 005°55'5 9.9
2017-Jul-20 18:29N 62°22' E 005°48'5 9.2
2017-Jul-20 18:00N 62°19' E 005°41'510.6
2017-Jul-20 17:30N 62°18' E 005°30'510.4
2017-Jul-20 17:00N 62°16' E 005°19'510.2
2017-Jul-20 16:30N 62°13' E 005°10'5 9.6
2017-Jul-20 16:00N 62°10' E 005°04'510.9
2017-Jul-20 15:30N 62°04' E 005°07'510.6
2017-Jul-20 15:00N 61°59' E 005°09'7 6.9
2017-Jul-20 14:00N 61°54' E 005°19'1 1.7
2017-Jul-20 13:30N 61°53' E 005°20'0 0.0
2017-Jul-20 13:00N 61°53' E 005°20'0 0.0
2017-Jul-20 12:30N 61°53' E 005°20'0 0.0
2017-Jul-20 12:00N 61°53' E 005°20'0 0.0
2017-Jul-20 11:30N 61°53' E 005°20'2 4.4
2017-Jul-20 11:00N 61°54' E 005°15'2 3.8
2017-Jul-20 10:30N 61°52' E 005°15'3 5.6
2017-Jul-20 09:59N 61°49' E 005°15'1 1.5
2017-Jul-20 09:30N 61°49' E 005°13'510.6
2017-Jul-20 09:00N 61°47' E 005°04'510.4
2017-Jul-20 08:30N 61°42' E 004°58'510.7
2017-Jul-20 08:00N 61°37' E 004°58'5 9.6
2017-Jul-20 07:30N 61°32' E 005°00'510.5
2017-Jul-20 07:00N 61°27' E 004°56'610.9
2017-Jul-20 06:30N 61°23' E 004°49'611.1
2017-Jul-20 06:00N 61°17' E 004°49'611.2
2017-Jul-20 05:30N 61°13' E 004°57'510.8
2017-Jul-20 05:00N 61°13' E 005°08'4 7.8
2017-Jul-20 04:31N 61°12' E 005°16'0 0.0
2017-Jul-20 04:00N 61°12' E 005°16'4 8.6
2017-Jul-20 03:30N 61°13' E 005°07'4 8.5
2017-Jul-20 03:00N 61°10' E 005°01'510.6
2017-Jul-20 02:30N 61°04' E 004°60'510.1
2017-Jul-20 02:00N 61°01' E 004°52'510.0
2017-Jul-20 01:30N 60°57' E 004°46'611.4
2017-Jul-20 01:00N 60°51' E 004°46'510.5
2017-Jul-20 00:30N 60°46' E 004°47'611.0
2017-Jul-20 00:00N 60°41' E 004°50'611.1
2017-Jul-19 23:30N 60°36' E 004°54'510.8
2017-Jul-19 23:00N 60°31' E 004°58'510.5
2017-Jul-19 22:30N 60°26' E 005°03'510.4
2017-Jul-19 22:00N 60°22' E 005°10'5 9.6
2017-Jul-19 21:29N 60°17' E 005°09'510.7
2017-Jul-19 21:00N 60°13' E 005°12'611.0
2017-Jul-19 20:30N 60°08' E 005°19'5 9.5
2017-Jul-19 20:00N 60°09' E 005°29'611.0
2017-Jul-19 19:29N 60°13' E 005°36'3 6.3
2017-Jul-19 18:59N 60°16' E 005°40'2 4.6
2017-Jul-19 18:31N 60°14' E 005°37'510.5
2017-Jul-19 18:00N 60°10' E 005°31'5 9.6
2017-Jul-19 17:30N 60°07' E 005°22'5 9.8
2017-Jul-19 17:00N 60°08' E 005°13'510.2
2017-Jul-19 16:30N 60°03' E 005°10'3 6.5
2017-Jul-19 16:00N 60°00' E 005°07'0 0.0
2017-Jul-19 15:30N 60°00' E 005°07'0 0.0
2017-Jul-19 15:00N 60°00' E 005°07'0 0.0
2017-Jul-19 14:30N 60°00' E 005°07'0 0.9
2017-Jul-19 14:00N 60°01' E 005°07'3 5.7
2017-Jul-19 13:30N 59°58' E 005°05'0 0.7
2017-Jul-19 13:00N 59°58' E 005°05'1 1.4
2017-Jul-19 12:30N 59°58' E 005°05'2 4.2
2017-Jul-19 12:00N 60°00' E 005°07'0 0.0
2017-Jul-19 11:30N 60°00' E 005°07'0 0.0
2017-Jul-19 11:00N 60°00' E 005°07'0 0.0
2017-Jul-19 10:30N 60°00' E 005°07'0 0.0
2017-Jul-19 10:00N 60°00' E 005°07'0 0.0
2017-Jul-19 09:30N 60°00' E 005°07'0 0.0
2017-Jul-19 09:00N 60°00' E 005°07'2 3.7
2017-Jul-19 08:30N 60°02' E 005°10'510.1
2017-Jul-19 08:00N 59°59' E 005°18'5 9.7
2017-Jul-19 07:30N 59°57' E 005°27'0 0.3
2017-Jul-19 07:00N 59°57' E 005°27'5 9.7
2017-Jul-19 06:30N 59°59' E 005°18'5 9.8
2017-Jul-19 06:00N 59°55' E 005°12'3 6.4
2017-Jul-19 05:30N 59°54' E 005°06'0 0.0
2017-Jul-19 04:59N 59°54' E 005°06'0 0.0
2017-Jul-19 04:30N 59°54' E 005°06'0 0.9
2017-Jul-19 04:00N 59°54' E 005°05'5 9.7
2017-Jul-19 03:30N 59°59' E 005°06'1 2.6
2017-Jul-19 03:00N 60°00' E 005°07'0 0.0
2017-Jul-19 02:30N 60°00' E 005°07'0 0.0
2017-Jul-19 02:00N 60°00' E 005°07'2 3.5
2017-Jul-19 01:30N 60°02' E 005°09'4 9.0
2017-Jul-19 01:00N 60°06' E 005°13'0 0.2
2017-Jul-19 00:30N 60°06' E 005°13'0 0.4
2017-Jul-19 00:00N 60°06' E 005°13'5 9.0
2017-Jul-18 23:30N 60°10' E 005°11'611.1
2017-Jul-18 23:00N 60°16' E 005°09'510.2
2017-Jul-18 22:31N 60°20' E 005°10'510.0
2017-Jul-18 22:00N 60°25' E 005°05'510.6
2017-Jul-18 21:30N 60°29' E 004°59'510.8
2017-Jul-18 21:00N 60°34' E 004°55'510.9
2017-Jul-18 20:30N 60°39' E 004°51'610.9
2017-Jul-18 20:00N 60°44' E 004°47'510.7
2017-Jul-18 19:30N 60°50' E 004°45'5 9.3
2017-Jul-18 19:00N 60°54' E 004°50'0 0.1
2017-Jul-18 18:30N 60°54' E 004°50'0 0.0
2017-Jul-18 18:00N 60°54' E 004°50'1 2.0
2017-Jul-18 17:30N 60°53' E 004°50'4 7.8
2017-Jul-18 17:00N 60°53' E 004°58'  

Dump ship's entire track history